createdAt,value
2022-12-11T00:00:25.779Z,35.45
2022-12-11T00:01:25.607Z,36.09
2022-12-11T00:02:25.645Z,35.77
2022-12-11T00:03:25.722Z,35.93
2022-12-11T00:04:25.597Z,35.77
2022-12-11T00:05:25.587Z,35.61
2022-12-11T00:06:25.584Z,36.42
2022-12-11T00:07:25.587Z,36.42
2022-12-11T00:08:25.658Z,36.58
2022-12-11T00:09:25.564Z,35.45
2022-12-11T00:10:25.681Z,36.74
2022-12-11T00:11:25.570Z,36.74
2022-12-11T00:12:25.541Z,36.09
2022-12-11T00:13:25.585Z,35.61
2022-12-11T00:14:25.545Z,36.74
2022-12-11T00:15:25.653Z,36.42
2022-12-11T00:16:27.300Z,36.58
2022-12-11T00:17:25.508Z,36.74
2022-12-11T00:18:25.508Z,37.22
2022-12-11T00:19:25.552Z,36.09
2022-12-11T00:20:25.578Z,36.58
2022-12-11T00:21:25.471Z,36.74
2022-12-11T00:22:25.457Z,36.25
2022-12-11T00:23:25.477Z,36.58
2022-12-11T00:24:25.454Z,36.25
2022-12-11T00:25:25.466Z,37.22
2022-12-11T00:26:25.556Z,37.38
2022-12-11T00:27:25.459Z,36.42
2022-12-11T00:28:25.447Z,36.74
2022-12-11T00:29:25.578Z,35.77
2022-12-11T00:30:25.436Z,36.74
2022-12-11T00:31:25.570Z,37.54
2022-12-11T00:32:28.261Z,36.58
2022-12-11T00:33:25.402Z,36.74
2022-12-11T00:34:25.420Z,36.25
2022-12-11T00:35:25.392Z,35.61
2022-12-11T00:36:25.389Z,36.09
2022-12-11T00:37:25.456Z,36.74
2022-12-11T00:38:25.371Z,35.29
2022-12-11T00:39:25.372Z,35.13
2022-12-11T00:40:25.350Z,35.61
2022-12-11T00:41:25.360Z,35.45
2022-12-11T00:42:25.333Z,35.13
2022-12-11T00:43:25.345Z,35.29
2022-12-11T00:44:25.329Z,35.45
2022-12-11T00:45:25.353Z,35.61
2022-12-11T00:46:25.467Z,37.06
2022-12-11T00:47:25.335Z,36.09
2022-12-11T00:48:25.303Z,36.09
2022-12-11T00:49:25.314Z,36.58
2022-12-11T00:50:25.264Z,37.22
2022-12-11T00:51:25.301Z,35.61
2022-12-11T00:52:25.280Z,36.09
2022-12-11T00:53:25.266Z,35.77
2022-12-11T00:54:25.253Z,35.45
2022-12-11T00:55:25.273Z,35.29
2022-12-11T00:56:25.252Z,35.61
2022-12-11T00:57:25.252Z,35.45
2022-12-11T00:58:25.245Z,36.09
2022-12-11T00:59:25.239Z,42.54
2022-12-11T01:00:25.265Z,35.77
2022-12-11T01:01:25.312Z,35.29
2022-12-11T01:02:25.258Z,35.13
2022-12-11T01:03:25.212Z,35.29
2022-12-11T01:04:25.197Z,35.61
2022-12-11T01:05:25.201Z,35.93
2022-12-11T01:06:25.208Z,36.25
2022-12-11T01:07:25.172Z,35.93
2022-12-11T01:08:25.227Z,37.38
2022-12-11T01:09:25.173Z,36.25
2022-12-11T01:10:25.264Z,35.61
2022-12-11T01:11:25.156Z,35.77
2022-12-11T01:12:25.140Z,36.09
2022-12-11T01:13:25.133Z,37.06
2022-12-11T01:14:25.141Z,35.45
2022-12-11T01:15:25.138Z,35.13
2022-12-11T01:16:25.171Z,35.61
2022-12-11T01:17:25.504Z,35.45
2022-12-11T01:18:25.165Z,35.77
2022-12-11T01:19:25.102Z,35.45
2022-12-11T01:20:25.099Z,35.61
2022-12-11T01:21:25.072Z,35.45
2022-12-11T01:22:25.090Z,35.45
2022-12-11T01:23:25.143Z,35.45
2022-12-11T01:24:25.055Z,35.77
2022-12-11T01:25:25.056Z,36.09
2022-12-11T01:26:25.059Z,35.77
2022-12-11T01:27:25.047Z,35.45
2022-12-11T01:28:25.048Z,35.45
2022-12-11T01:29:25.053Z,35.61
2022-12-11T01:30:25.131Z,34.97
2022-12-11T01:31:25.096Z,35.61
2022-12-11T01:32:25.039Z,35.45
2022-12-11T01:33:25.011Z,35.61
2022-12-11T01:34:25.033Z,35.61
2022-12-11T01:35:25.004Z,35.61
2022-12-11T01:36:24.995Z,35.29
2022-12-11T01:37:25.009Z,35.13
2022-12-11T01:38:24.975Z,35.45
2022-12-11T01:39:24.987Z,35.13
2022-12-11T01:40:24.975Z,35.13
2022-12-11T01:41:24.982Z,34.64
2022-12-11T01:42:24.947Z,35.13
2022-12-11T01:43:24.970Z,34.97
2022-12-11T01:44:31.990Z,34.16
2022-12-11T01:45:27.067Z,35.61
2022-12-11T01:46:25.043Z,35.45
2022-12-11T01:47:24.938Z,35.13
2022-12-11T01:48:24.911Z,34.97
2022-12-11T01:49:25.027Z,34.80
2022-12-11T01:50:24.930Z,35.45
2022-12-11T01:51:24.904Z,35.77
2022-12-11T01:52:24.896Z,34.97
2022-12-11T01:53:24.905Z,35.45
2022-12-11T01:54:24.877Z,35.13
2022-12-11T01:55:25.166Z,35.61
2022-12-11T01:56:24.886Z,35.45
2022-12-11T01:57:24.879Z,35.61
2022-12-11T01:58:24.870Z,35.13
2022-12-11T01:59:24.879Z,35.77
2022-12-11T02:00:24.834Z,40.12
2022-12-11T02:01:25.067Z,46.57
2022-12-11T02:02:24.880Z,36.42
2022-12-11T02:03:24.827Z,36.25
2022-12-11T02:04:24.963Z,35.61
2022-12-11T02:05:24.840Z,35.61
2022-12-11T02:06:24.851Z,35.93
2022-12-11T02:07:24.831Z,36.25
2022-12-11T02:08:24.840Z,35.77
2022-12-11T02:09:24.903Z,35.61
2022-12-11T02:10:24.805Z,35.45
2022-12-11T02:11:24.805Z,35.61
2022-12-11T02:12:24.823Z,35.45
2022-12-11T02:13:24.782Z,35.45
2022-12-11T02:14:24.920Z,35.61
2022-12-11T02:15:24.805Z,35.45
2022-12-11T02:16:24.953Z,35.61
2022-12-11T02:17:24.924Z,35.29
2022-12-11T02:18:24.756Z,35.45
2022-12-11T02:19:25.746Z,35.13
2022-12-11T02:20:24.721Z,35.61
2022-12-11T02:21:24.740Z,35.29
2022-12-11T02:22:24.740Z,35.29
2022-12-11T02:23:24.714Z,35.61
2022-12-11T02:24:24.707Z,35.29
2022-12-11T02:25:24.700Z,35.45
2022-12-11T02:26:24.792Z,35.45
2022-12-11T02:27:24.754Z,35.61
2022-12-11T02:28:24.728Z,35.93
2022-12-11T02:29:24.689Z,36.58
2022-12-11T02:30:25.022Z,35.61
2022-12-11T02:31:24.696Z,34.97
2022-12-11T02:32:24.656Z,35.13
2022-12-11T02:33:24.685Z,35.45
2022-12-11T02:34:24.643Z,35.61
2022-12-11T02:35:24.758Z,35.61
2022-12-11T02:36:24.806Z,35.29
2022-12-11T02:37:24.634Z,35.61
2022-12-11T02:38:24.694Z,35.77
2022-12-11T02:39:24.614Z,35.61
2022-12-11T02:40:24.608Z,35.61
2022-12-11T02:41:24.610Z,35.61
2022-12-11T02:42:24.576Z,35.29
2022-12-11T02:43:24.644Z,35.77
2022-12-11T02:44:24.589Z,35.61
2022-12-11T02:45:24.575Z,35.13
2022-12-11T02:46:24.678Z,35.61
2022-12-11T02:47:24.674Z,35.61
2022-12-11T02:48:24.537Z,35.61
2022-12-11T02:49:24.555Z,35.45
2022-12-11T02:50:24.630Z,35.61
2022-12-11T02:51:24.530Z,35.61
2022-12-11T02:52:24.533Z,35.29
2022-12-11T02:53:24.515Z,35.45
2022-12-11T02:54:24.542Z,35.77
2022-12-11T02:55:24.524Z,35.61
2022-12-11T02:56:24.487Z,35.61
2022-12-11T02:57:24.744Z,35.45
2022-12-11T02:58:24.498Z,35.61
2022-12-11T02:59:24.490Z,36.09
2022-12-11T03:00:24.474Z,44.15
2022-12-11T03:01:24.566Z,40.77
2022-12-11T03:02:24.519Z,36.25
2022-12-11T03:03:24.557Z,36.58
2022-12-11T03:04:24.453Z,36.25
2022-12-11T03:05:24.442Z,35.93
2022-12-11T03:06:24.443Z,36.42
2022-12-11T03:07:24.466Z,35.45
2022-12-11T03:08:24.489Z,35.77
2022-12-11T03:09:24.430Z,36.42
2022-12-11T03:10:24.425Z,36.74
2022-12-11T03:11:24.427Z,34.97
2022-12-11T03:12:24.412Z,36.09
2022-12-11T03:13:24.413Z,35.61
2022-12-11T03:14:24.376Z,36.25
2022-12-11T03:15:24.408Z,36.25
2022-12-11T03:16:24.457Z,36.58
2022-12-11T03:17:24.455Z,36.09
2022-12-11T03:18:24.379Z,36.09
2022-12-11T03:19:24.376Z,35.77
2022-12-11T03:20:24.352Z,35.61
2022-12-11T03:21:24.358Z,36.09
2022-12-11T03:22:24.329Z,36.09
2022-12-11T03:23:24.348Z,35.61
2022-12-11T03:24:24.334Z,35.45
2022-12-11T03:25:24.337Z,35.45
2022-12-11T03:26:24.343Z,35.45
2022-12-11T03:27:24.385Z,35.45
2022-12-11T03:28:24.294Z,35.61
2022-12-11T03:29:24.318Z,35.61
2022-12-11T03:30:24.368Z,35.93
2022-12-11T03:31:24.301Z,35.77
2022-12-11T03:32:24.297Z,36.74
2022-12-11T03:33:24.275Z,50.27
2022-12-11T03:34:24.291Z,35.93
2022-12-11T03:35:24.281Z,35.61
2022-12-11T03:36:24.243Z,35.61
2022-12-11T03:37:24.387Z,36.58
2022-12-11T03:38:24.240Z,36.74
2022-12-11T03:39:24.240Z,35.93
2022-12-11T03:40:24.246Z,36.58
2022-12-11T03:41:24.226Z,35.93
2022-12-11T03:42:24.243Z,36.25
2022-12-11T03:43:24.225Z,35.61
2022-12-11T03:44:24.405Z,36.42
2022-12-11T03:45:24.451Z,36.74
2022-12-11T03:46:24.223Z,36.58
2022-12-11T03:47:24.213Z,37.22
2022-12-11T03:48:24.260Z,36.74
2022-12-11T03:49:24.204Z,36.74
2022-12-11T03:50:24.179Z,35.61
2022-12-11T03:51:24.653Z,37.06
2022-12-11T03:52:24.176Z,36.25
2022-12-11T03:53:24.154Z,35.45
2022-12-11T03:54:24.150Z,36.25
2022-12-11T03:55:24.159Z,36.25
2022-12-11T03:56:24.127Z,36.25
2022-12-11T03:57:24.157Z,36.42
2022-12-11T03:58:24.247Z,36.09
2022-12-11T03:59:24.164Z,34.97
2022-12-11T04:00:24.148Z,35.93
2022-12-11T04:01:24.194Z,36.25
2022-12-11T04:02:24.101Z,35.61
2022-12-11T04:03:24.142Z,36.09
2022-12-11T04:04:24.151Z,36.09
2022-12-11T04:05:24.154Z,35.77
2022-12-11T04:06:24.083Z,35.93
2022-12-11T04:07:24.088Z,36.25
2022-12-11T04:08:24.184Z,35.93
2022-12-11T04:09:24.080Z,35.93
2022-12-11T04:10:24.067Z,35.61
2022-12-11T04:11:24.052Z,35.45
2022-12-11T04:12:24.045Z,36.09
2022-12-11T04:13:24.037Z,36.58
2022-12-11T04:14:24.069Z,36.09
2022-12-11T04:15:24.039Z,35.45
2022-12-11T04:16:24.030Z,35.93
2022-12-11T04:17:24.011Z,35.93
2022-12-11T04:18:24.010Z,35.61
2022-12-11T04:19:24.012Z,35.93
2022-12-11T04:20:23.983Z,36.25
2022-12-11T04:21:24.002Z,36.09
2022-12-11T04:22:24.066Z,36.58
2022-12-11T04:23:23.983Z,36.09
2022-12-11T04:24:23.993Z,36.58
2022-12-11T04:25:24.039Z,36.58
2022-12-11T04:26:23.960Z,36.09
2022-12-11T04:27:23.975Z,36.25
2022-12-11T04:28:23.931Z,35.77
2022-12-11T04:29:23.947Z,35.93
2022-12-11T04:30:26.917Z,36.09
2022-12-11T04:31:25.085Z,36.42
2022-12-11T04:32:23.943Z,37.38
2022-12-11T04:33:23.911Z,38.19
2022-12-11T04:34:23.903Z,38.67
2022-12-11T04:35:23.947Z,39.48
2022-12-11T04:36:23.879Z,42.54
2022-12-11T04:37:23.905Z,38.67
2022-12-11T04:38:23.862Z,38.19
2022-12-11T04:39:23.883Z,37.87
2022-12-11T04:40:23.880Z,38.03
2022-12-11T04:41:24.064Z,37.71
2022-12-11T04:42:23.858Z,37.71
2022-12-11T04:43:23.861Z,38.19
2022-12-11T04:44:23.830Z,35.93
2022-12-11T04:45:23.835Z,36.42
2022-12-11T04:46:23.917Z,36.25
2022-12-11T04:47:23.829Z,36.25
2022-12-11T04:48:23.831Z,35.93
2022-12-11T04:49:23.805Z,36.90
2022-12-11T04:50:23.820Z,36.74
2022-12-11T04:51:23.963Z,36.58
2022-12-11T04:52:23.795Z,36.74
2022-12-11T04:53:23.800Z,37.22
2022-12-11T04:54:23.790Z,36.25
2022-12-11T04:55:23.812Z,36.25
2022-12-11T04:56:23.786Z,36.90
2022-12-11T04:57:23.801Z,36.09
2022-12-11T04:58:23.770Z,36.58
2022-12-11T04:59:23.754Z,36.58
2022-12-11T05:00:23.738Z,36.58
2022-12-11T05:01:23.917Z,36.25
2022-12-11T05:02:23.813Z,35.93
2022-12-11T05:03:23.711Z,36.90
2022-12-11T05:04:23.761Z,36.42
2022-12-11T05:05:23.712Z,35.77
2022-12-11T05:06:23.716Z,36.74
2022-12-11T05:07:23.685Z,36.42
2022-12-11T05:08:23.777Z,36.74
2022-12-11T05:09:23.748Z,36.74
2022-12-11T05:10:23.822Z,37.22
2022-12-11T05:11:23.675Z,37.22
2022-12-11T05:12:23.665Z,37.54
2022-12-11T05:13:23.660Z,37.06
2022-12-11T05:14:23.675Z,36.25
2022-12-11T05:15:23.633Z,37.06
2022-12-11T05:16:23.733Z,37.38
2022-12-11T05:17:23.616Z,36.25
2022-12-11T05:18:23.640Z,36.42
2022-12-11T05:19:23.629Z,35.93
2022-12-11T05:20:23.624Z,36.42
2022-12-11T05:21:23.614Z,36.42
2022-12-11T05:22:23.597Z,36.25
2022-12-11T05:23:23.597Z,36.42
2022-12-11T05:24:23.588Z,35.93
2022-12-11T05:25:23.591Z,36.90
2022-12-11T05:26:23.587Z,36.58
2022-12-11T05:27:23.573Z,36.58
2022-12-11T05:28:23.584Z,36.74
2022-12-11T05:29:23.546Z,36.90
2022-12-11T05:30:23.546Z,36.58
2022-12-11T05:31:23.571Z,36.58
2022-12-11T05:32:23.535Z,36.74
2022-12-11T05:33:23.532Z,35.61
2022-12-11T05:34:23.593Z,35.77
2022-12-11T05:35:23.513Z,37.06
2022-12-11T05:36:23.521Z,39.64
2022-12-11T05:37:23.501Z,35.93
2022-12-11T05:38:23.487Z,36.25
2022-12-11T05:39:23.507Z,36.09
2022-12-11T05:40:23.479Z,35.93
2022-12-11T05:41:23.511Z,36.09
2022-12-11T05:42:28.650Z,36.25
2022-12-11T05:43:24.463Z,36.42
2022-12-11T05:44:23.493Z,36.58
2022-12-11T05:45:23.455Z,36.09
2022-12-11T05:46:23.474Z,36.09
2022-12-11T05:47:23.450Z,36.25
2022-12-11T05:48:23.469Z,36.09
2022-12-11T05:49:29.014Z,36.25
2022-12-11T05:50:24.447Z,35.45
2022-12-11T05:51:23.411Z,36.42
2022-12-11T05:52:23.395Z,36.09
2022-12-11T05:53:23.439Z,36.09
2022-12-11T05:54:23.476Z,36.25
2022-12-11T05:55:23.388Z,36.25
2022-12-11T05:56:23.387Z,36.09
2022-12-11T05:57:23.387Z,36.42
2022-12-11T05:58:23.387Z,36.09
2022-12-11T05:59:23.384Z,36.74
2022-12-11T06:00:24.067Z,36.58
2022-12-11T06:01:23.368Z,36.90
2022-12-11T06:02:23.450Z,36.74
2022-12-11T06:03:23.339Z,37.38
2022-12-11T06:04:23.336Z,36.74
2022-12-11T06:05:23.336Z,36.09
2022-12-11T06:06:23.382Z,35.29
2022-12-11T06:07:23.341Z,35.93
2022-12-11T06:08:23.366Z,36.09
2022-12-11T06:09:23.316Z,35.93
2022-12-11T06:10:23.344Z,36.25
2022-12-11T06:11:24.380Z,36.25
2022-12-11T06:12:23.286Z,36.74
2022-12-11T06:13:23.299Z,35.61
2022-12-11T06:14:23.278Z,36.25
2022-12-11T06:15:23.267Z,35.93
2022-12-11T06:16:23.339Z,36.25
2022-12-11T06:17:23.317Z,36.74
2022-12-11T06:18:23.242Z,36.58
2022-12-11T06:19:23.553Z,36.90
2022-12-11T06:20:23.225Z,36.74
2022-12-11T06:21:23.274Z,36.74
2022-12-11T06:22:23.250Z,37.22
2022-12-11T06:23:23.217Z,36.42
2022-12-11T06:24:23.250Z,36.58
2022-12-11T06:25:23.221Z,36.42
2022-12-11T06:26:23.213Z,35.61
2022-12-11T06:27:23.249Z,36.74
2022-12-11T06:28:23.201Z,36.74
2022-12-11T06:29:23.261Z,36.74
2022-12-11T06:30:23.394Z,36.42
2022-12-11T06:31:24.293Z,37.54
2022-12-11T06:32:23.165Z,36.74
2022-12-11T06:33:23.347Z,37.06
2022-12-11T06:34:23.149Z,37.22
2022-12-11T06:35:23.155Z,37.22
2022-12-11T06:36:23.307Z,37.54
2022-12-11T06:37:23.125Z,37.87
2022-12-11T06:38:23.136Z,36.90
2022-12-11T06:39:23.126Z,37.22
2022-12-11T06:40:23.130Z,37.71
2022-12-11T06:41:23.116Z,37.54
2022-12-11T06:42:23.120Z,40.44
2022-12-11T06:43:23.083Z,41.25
2022-12-11T06:44:23.100Z,37.38
2022-12-11T06:45:23.074Z,36.90
2022-12-11T06:46:23.136Z,38.83
2022-12-11T06:47:23.084Z,39.32
2022-12-11T06:48:23.047Z,36.74
2022-12-11T06:49:23.063Z,37.22
2022-12-11T06:50:23.049Z,36.74
2022-12-11T06:51:23.054Z,37.22
2022-12-11T06:52:23.057Z,36.90
2022-12-11T06:53:23.036Z,36.74
2022-12-11T06:54:23.036Z,36.74
2022-12-11T06:55:23.029Z,37.54
2022-12-11T06:56:23.014Z,37.22
2022-12-11T06:57:22.998Z,36.90
2022-12-11T06:58:23.071Z,37.06
2022-12-11T06:59:23.005Z,36.25
2022-12-11T07:00:22.984Z,36.74
2022-12-11T07:01:23.053Z,37.87
2022-12-11T07:02:23.116Z,38.51
2022-12-11T07:03:23.030Z,38.19
2022-12-11T07:04:22.962Z,39.16
2022-12-11T07:05:22.952Z,39.16
2022-12-11T07:06:22.937Z,38.51
2022-12-11T07:07:22.966Z,38.19
2022-12-11T07:08:23.023Z,37.87
2022-12-11T07:09:22.947Z,37.71
2022-12-11T07:10:22.974Z,37.38
2022-12-11T07:11:22.926Z,38.19
2022-12-11T07:12:22.909Z,38.51
2022-12-11T07:13:22.916Z,38.83
2022-12-11T07:14:22.899Z,37.22
2022-12-11T07:15:22.886Z,37.71
2022-12-11T07:16:22.951Z,37.71
2022-12-11T07:17:22.917Z,37.71
2022-12-11T07:18:22.870Z,38.51
2022-12-11T07:19:22.881Z,36.90
2022-12-11T07:20:22.849Z,36.74
2022-12-11T07:21:22.866Z,37.38
2022-12-11T07:22:22.850Z,37.87
2022-12-11T07:23:22.842Z,36.90
2022-12-11T07:24:22.837Z,37.54
2022-12-11T07:25:22.876Z,37.38
2022-12-11T07:26:22.858Z,36.58
2022-12-11T07:27:22.878Z,37.22
2022-12-11T07:28:22.830Z,37.06
2022-12-11T07:29:22.821Z,37.22
2022-12-11T07:30:22.793Z,37.54
2022-12-11T07:31:22.873Z,36.25
2022-12-11T07:32:22.902Z,37.06
2022-12-11T07:33:22.803Z,37.22
2022-12-11T07:34:22.790Z,36.74
2022-12-11T07:35:22.784Z,36.42
2022-12-11T07:36:22.835Z,37.71
2022-12-11T07:37:22.754Z,36.74
2022-12-11T07:38:22.746Z,37.22
2022-12-11T07:39:22.772Z,37.71
2022-12-11T07:40:22.743Z,36.90
2022-12-11T07:41:22.756Z,38.03
2022-12-11T07:42:22.757Z,38.03
2022-12-11T07:43:22.727Z,37.71
2022-12-11T07:44:22.729Z,37.22
2022-12-11T07:45:22.703Z,37.22
2022-12-11T07:46:22.772Z,37.22
2022-12-11T07:47:22.688Z,38.03
2022-12-11T07:48:22.751Z,36.90
2022-12-11T07:49:30.254Z,36.90
2022-12-11T07:50:22.707Z,37.22
2022-12-11T07:51:22.674Z,37.22
2022-12-11T07:52:22.684Z,37.22
2022-12-11T07:53:22.673Z,37.06
2022-12-11T07:54:22.666Z,36.58
2022-12-11T07:55:22.693Z,36.58
2022-12-11T07:56:22.650Z,36.25
2022-12-11T07:57:22.627Z,36.25
2022-12-11T07:58:22.666Z,36.42
2022-12-11T07:59:22.635Z,36.58
2022-12-11T08:00:22.639Z,35.93
2022-12-11T08:01:22.710Z,36.42
2022-12-11T08:02:22.652Z,36.25
2022-12-11T08:03:22.607Z,36.58
2022-12-11T08:04:22.609Z,36.42
2022-12-11T08:05:22.614Z,36.25
2022-12-11T08:06:24.021Z,36.25
2022-12-11T08:07:22.596Z,36.42
2022-12-11T08:08:22.667Z,35.77
2022-12-11T08:09:22.576Z,37.06
2022-12-11T08:10:22.581Z,37.06
2022-12-11T08:11:22.554Z,36.42
2022-12-11T08:12:22.603Z,37.06
2022-12-11T08:13:22.591Z,37.06
2022-12-11T08:14:22.627Z,36.58
2022-12-11T08:15:22.522Z,36.58
2022-12-11T08:16:22.594Z,37.22
2022-12-11T08:17:28.764Z,37.87
2022-12-11T08:18:23.545Z,37.22
2022-12-11T08:19:22.547Z,38.83
2022-12-11T08:20:22.500Z,37.22
2022-12-11T08:21:22.562Z,36.58
2022-12-11T08:22:22.494Z,37.06
2022-12-11T08:23:22.479Z,36.90
2022-12-11T08:24:22.942Z,38.03
2022-12-11T08:25:22.466Z,38.83
2022-12-11T08:26:22.476Z,38.67
2022-12-11T08:27:22.527Z,38.83
2022-12-11T08:28:22.483Z,38.35
2022-12-11T08:29:22.434Z,38.83
2022-12-11T08:30:22.496Z,38.51
2022-12-11T08:31:22.566Z,39.32
2022-12-11T08:32:22.447Z,38.51
2022-12-11T08:33:22.466Z,37.06
2022-12-11T08:34:22.459Z,37.87
2022-12-11T08:35:22.404Z,37.38
2022-12-11T08:36:22.407Z,36.74
2022-12-11T08:37:22.379Z,36.74
2022-12-11T08:38:25.588Z,37.06
2022-12-11T08:39:22.389Z,36.74
2022-12-11T08:40:22.390Z,36.90
2022-12-11T08:41:22.368Z,36.74
2022-12-11T08:42:22.369Z,37.06
2022-12-11T08:43:22.361Z,37.22
2022-12-11T08:44:22.357Z,37.54
2022-12-11T08:45:22.362Z,38.03
2022-12-11T08:46:22.477Z,38.03
2022-12-11T08:47:22.377Z,38.67
2022-12-11T08:48:22.335Z,38.19
2022-12-11T08:49:22.366Z,38.51
2022-12-11T08:50:22.397Z,38.51
2022-12-11T08:51:22.286Z,39.80
2022-12-11T08:52:22.333Z,39.64
2022-12-11T08:53:22.272Z,38.35
2022-12-11T08:54:22.321Z,38.19
2022-12-11T08:55:22.273Z,39.32
2022-12-11T08:56:22.340Z,39.32
2022-12-11T08:57:22.277Z,38.03
2022-12-11T08:58:22.257Z,38.03
2022-12-11T08:59:22.234Z,38.99
2022-12-11T09:00:22.329Z,38.35
2022-12-11T09:01:22.268Z,37.87
2022-12-11T09:02:22.327Z,37.87
2022-12-11T09:03:22.200Z,37.54
2022-12-11T09:04:22.218Z,37.87
2022-12-11T09:05:22.191Z,37.38
2022-12-11T09:06:22.210Z,38.19
2022-12-11T09:07:22.189Z,38.19
2022-12-11T09:08:22.284Z,37.06
2022-12-11T09:09:22.174Z,37.54
2022-12-11T09:10:22.164Z,37.54
2022-12-11T09:11:22.147Z,37.54
2022-12-11T09:12:22.169Z,37.54
2022-12-11T09:13:22.149Z,37.22
2022-12-11T09:14:22.156Z,37.22
2022-12-11T09:15:22.141Z,37.22
2022-12-11T09:16:22.226Z,38.19
2022-12-11T09:17:22.107Z,38.19
2022-12-11T09:18:22.246Z,38.19
2022-12-11T09:19:22.102Z,37.54
2022-12-11T09:20:22.086Z,37.54
2022-12-11T09:21:22.093Z,37.71
2022-12-11T09:22:22.092Z,38.51
2022-12-11T09:23:22.063Z,38.19
2022-12-11T09:24:22.123Z,37.71
2022-12-11T09:25:22.057Z,36.90
2022-12-11T09:26:22.070Z,38.03
2022-12-11T09:27:22.051Z,39.80
2022-12-11T09:28:22.038Z,39.32
2022-12-11T09:29:22.081Z,40.12
2022-12-11T09:30:22.027Z,37.87
2022-12-11T09:31:22.100Z,37.54
2022-12-11T09:32:22.044Z,37.71
2022-12-11T09:33:22.011Z,37.87
2022-12-11T09:34:27.506Z,41.25
2022-12-11T09:35:22.989Z,50.27
2022-12-11T09:36:22.005Z,41.89
2022-12-11T09:37:21.966Z,39.16
2022-12-11T09:38:21.986Z,38.19
2022-12-11T09:39:21.979Z,37.87
2022-12-11T09:40:22.003Z,39.16
2022-12-11T09:41:21.996Z,41.89
2022-12-11T09:42:21.960Z,41.25
2022-12-11T09:43:21.955Z,39.80
2022-12-11T09:44:21.955Z,39.32
2022-12-11T09:45:21.911Z,38.99
2022-12-11T09:46:24.693Z,38.83
2022-12-11T09:47:21.913Z,39.96
2022-12-11T09:48:21.902Z,39.64
2022-12-11T09:49:21.923Z,39.96
2022-12-11T09:50:21.959Z,41.09
2022-12-11T09:51:21.913Z,39.16
2022-12-11T09:52:21.859Z,38.99
2022-12-11T09:53:21.880Z,40.12
2022-12-11T09:54:21.887Z,41.41
2022-12-11T09:55:22.005Z,40.28
2022-12-11T09:56:21.853Z,41.89
2022-12-11T09:57:21.876Z,40.28
2022-12-11T09:58:21.839Z,40.28
2022-12-11T09:59:22.094Z,40.77
2022-12-11T10:00:21.804Z,41.25
2022-12-11T10:01:21.866Z,40.93
2022-12-11T10:02:21.864Z,41.25
2022-12-11T10:03:21.797Z,41.25
2022-12-11T10:04:21.796Z,41.09
2022-12-11T10:05:21.820Z,40.77
2022-12-11T10:06:21.796Z,41.73
2022-12-11T10:07:21.773Z,40.77
2022-12-11T10:08:21.794Z,40.93
2022-12-11T10:09:21.766Z,40.93
2022-12-11T10:10:21.773Z,41.41
2022-12-11T10:11:21.767Z,41.89
2022-12-11T10:12:21.743Z,41.09
2022-12-11T10:13:21.748Z,40.28
2022-12-11T10:14:21.736Z,40.12
2022-12-11T10:15:21.765Z,40.93
2022-12-11T10:16:21.750Z,41.25
2022-12-11T10:17:21.703Z,40.77
2022-12-11T10:18:21.747Z,41.09
2022-12-11T10:19:21.716Z,43.02
2022-12-11T10:20:21.674Z,44.15
2022-12-11T10:21:21.703Z,42.06
2022-12-11T10:22:21.706Z,41.73
2022-12-11T10:23:21.676Z,42.70
2022-12-11T10:24:57.580Z,41.57
2022-12-11T10:25:22.681Z,39.96
2022-12-11T10:26:21.646Z,42.54
2022-12-11T10:27:21.635Z,39.96
2022-12-11T10:28:21.651Z,41.57
2022-12-11T10:29:21.636Z,39.96
2022-12-11T10:30:21.629Z,39.48
2022-12-11T10:31:21.717Z,40.12
2022-12-11T10:32:21.615Z,39.80
2022-12-11T10:33:21.643Z,40.12
2022-12-11T10:34:21.588Z,45.92
2022-12-11T10:35:21.584Z,40.61
2022-12-11T10:36:21.871Z,39.16
2022-12-11T10:37:21.591Z,41.09
2022-12-11T10:38:21.620Z,40.44
2022-12-11T10:39:21.593Z,40.28
2022-12-11T10:40:21.547Z,39.32
2022-12-11T10:41:21.531Z,40.44
2022-12-11T10:42:21.579Z,40.61
2022-12-11T10:43:21.557Z,41.57
2022-12-11T10:44:21.507Z,42.22
2022-12-11T10:45:21.575Z,40.28
2022-12-11T10:46:21.616Z,39.64
2022-12-11T10:47:21.498Z,40.93
2022-12-11T10:48:21.508Z,40.77
2022-12-11T10:49:21.479Z,39.96
2022-12-11T10:50:21.861Z,39.96
2022-12-11T10:51:21.504Z,39.64
2022-12-11T10:52:21.477Z,39.80
2022-12-11T10:53:21.465Z,40.12
2022-12-11T10:54:21.467Z,39.16
2022-12-11T10:55:21.471Z,40.12
2022-12-11T10:56:21.431Z,42.06
2022-12-11T10:57:21.431Z,41.25
2022-12-11T10:58:21.429Z,40.77
2022-12-11T10:59:24.123Z,40.12
2022-12-11T11:00:21.426Z,39.64
2022-12-11T11:01:21.437Z,39.32
2022-12-11T11:02:21.537Z,41.25
2022-12-11T11:03:21.390Z,41.09
2022-12-11T11:04:21.384Z,40.44
2022-12-11T11:05:21.376Z,39.16
2022-12-11T11:06:21.376Z,39.32
2022-12-11T11:07:21.349Z,39.16
2022-12-11T11:08:21.486Z,38.67
2022-12-11T11:09:21.342Z,38.19
2022-12-11T11:10:21.409Z,38.99
2022-12-11T11:11:21.313Z,38.99
2022-12-11T11:12:21.387Z,38.83
2022-12-11T11:13:21.308Z,38.35
2022-12-11T11:14:21.303Z,39.48
2022-12-11T11:15:21.325Z,40.44
2022-12-11T11:16:21.391Z,39.48
2022-12-11T11:17:21.290Z,38.83
2022-12-11T11:18:21.294Z,38.67
2022-12-11T11:19:21.265Z,38.67
2022-12-11T11:20:21.274Z,38.51
2022-12-11T11:21:21.259Z,38.19
2022-12-11T11:22:21.255Z,38.67
2022-12-11T11:23:21.252Z,37.71
2022-12-11T11:24:21.254Z,38.83
2022-12-11T11:25:21.233Z,40.12
2022-12-11T11:26:21.271Z,39.32
2022-12-11T11:27:21.218Z,38.83
2022-12-11T11:28:21.207Z,38.83
2022-12-11T11:29:21.207Z,40.77
2022-12-11T11:30:21.225Z,39.16
2022-12-11T11:31:21.247Z,38.03
2022-12-11T11:32:21.210Z,38.35
2022-12-11T11:33:21.162Z,39.16
2022-12-11T11:34:21.167Z,38.67
2022-12-11T11:35:21.178Z,39.80
2022-12-11T11:36:21.147Z,39.16
2022-12-11T11:37:21.180Z,38.99
2022-12-11T11:38:21.174Z,38.67
2022-12-11T11:39:21.122Z,39.80
2022-12-11T11:40:21.120Z,38.67
2022-12-11T11:41:21.122Z,39.16
2022-12-11T11:42:21.144Z,41.73
2022-12-11T11:43:21.221Z,39.80
2022-12-11T11:44:21.111Z,39.32
2022-12-11T11:45:21.088Z,41.25
2022-12-11T11:46:21.167Z,39.16
2022-12-11T11:47:21.091Z,39.64
2022-12-11T11:48:21.082Z,48.34
2022-12-11T11:49:21.433Z,42.06
2022-12-11T11:50:21.073Z,38.35
2022-12-11T11:51:21.041Z,38.19
2022-12-11T11:52:21.062Z,40.28
2022-12-11T11:53:21.035Z,39.16
2022-12-11T11:54:21.030Z,38.19
2022-12-11T11:55:22.620Z,37.87
2022-12-11T11:56:21.033Z,39.48
2022-12-11T11:57:21.016Z,40.28
2022-12-11T11:58:21.044Z,37.87
2022-12-11T11:59:21.045Z,38.99
2022-12-11T12:00:21.030Z,38.83
2022-12-11T12:01:20.969Z,40.44
2022-12-11T12:02:21.066Z,38.99
2022-12-11T12:03:20.970Z,38.03
2022-12-11T12:04:20.965Z,39.16
2022-12-11T12:05:20.986Z,38.99
2022-12-11T12:06:20.994Z,38.51
2022-12-11T12:07:20.933Z,38.51
2022-12-11T12:08:20.992Z,38.19
2022-12-11T12:09:21.026Z,38.67
2022-12-11T12:10:20.926Z,39.32
2022-12-11T12:11:20.915Z,38.83
2022-12-11T12:12:26.362Z,39.32
2022-12-11T12:13:48.195Z,38.83
2022-12-11T12:14:50.990Z,38.35
2022-12-11T12:15:21.885Z,40.61
2022-12-11T12:16:50.968Z,38.51
2022-12-11T12:17:21.917Z,38.83
2022-12-11T12:18:20.893Z,40.77
2022-12-11T12:19:20.850Z,39.80
2022-12-11T12:20:20.870Z,39.96
2022-12-11T12:21:20.836Z,38.83
2022-12-11T12:22:20.845Z,39.16
2022-12-11T12:23:20.833Z,38.51
2022-12-11T12:24:20.872Z,39.32
2022-12-11T12:25:20.815Z,38.51
2022-12-11T12:26:20.817Z,38.67
2022-12-11T12:27:50.591Z,39.16
2022-12-11T12:28:21.790Z,39.32
2022-12-11T12:29:20.788Z,38.03
2022-12-11T12:30:23.259Z,38.19
2022-12-11T12:31:20.842Z,38.19
2022-12-11T12:32:20.877Z,38.51
2022-12-11T12:33:20.939Z,39.80
2022-12-11T12:34:20.753Z,38.51
2022-12-11T12:35:20.756Z,37.71
2022-12-11T12:36:20.803Z,37.54
2022-12-11T12:37:20.741Z,38.03
2022-12-11T12:38:20.784Z,38.35
2022-12-11T12:39:20.723Z,37.87
2022-12-11T12:40:20.723Z,38.19
2022-12-11T12:41:20.691Z,37.71
2022-12-11T12:42:20.696Z,37.38
2022-12-11T12:43:20.699Z,39.48
2022-12-11T12:44:20.755Z,37.87
2022-12-11T12:45:20.664Z,38.51
2022-12-11T12:46:20.719Z,38.51
2022-12-11T12:47:20.670Z,38.03
2022-12-11T12:48:20.657Z,37.54
2022-12-11T12:49:20.663Z,37.38
2022-12-11T12:50:20.662Z,38.19
2022-12-11T12:51:20.638Z,38.19
2022-12-11T12:52:20.657Z,37.54